createdAt,value
2019-03-01T00:01:48.755Z,95448.97
2019-03-01T00:04:20.333Z,95444.02
2019-03-01T00:06:50.990Z,95438.72
2019-03-01T00:09:25.344Z,95444.66
2019-03-01T00:14:58.267Z,95438.89
2019-03-01T00:17:41.840Z,95434.09
2019-03-01T00:23:16.358Z,95431.98
2019-03-01T00:25:50.144Z,95428.78
2019-03-01T00:28:21.643Z,95431.00
2019-03-01T00:30:55.422Z,95442.69
2019-03-01T00:33:27.155Z,95442.17
2019-03-01T00:42:25.472Z,95438.13
2019-03-01T00:44:56.510Z,95427.00
2019-03-01T00:47:29.277Z,95419.20
2019-03-01T00:49:57.169Z,95417.33
2019-03-01T00:52:25.071Z,95415.69
2019-03-01T00:54:54.952Z,95415.53
2019-03-01T00:57:22.856Z,95413.22
2019-03-01T00:59:56.823Z,95425.08
2019-03-01T01:02:26.628Z,95427.36
2019-03-01T01:04:54.682Z,95418.85
2019-03-01T01:07:22.558Z,95424.07
2019-03-01T01:09:50.460Z,95424.36
2019-03-01T01:12:18.347Z,95421.38
2019-03-01T01:14:46.287Z,95412.06
2019-03-01T01:17:14.183Z,95416.31
2019-03-01T01:19:47.518Z,95396.98
2019-03-01T01:22:15.489Z,95397.16
2019-03-01T01:24:46.999Z,95408.59
2019-03-01T01:27:14.921Z,95383.86
2019-03-01T01:29:42.812Z,95379.59
2019-03-01T01:32:10.737Z,95375.91
2019-03-01T01:34:51.750Z,95377.73
2019-03-01T01:37:19.666Z,95361.81
2019-03-01T01:39:47.564Z,95375.81
2019-03-01T01:42:15.461Z,95374.92
2019-03-01T01:44:43.402Z,95372.47
2019-03-01T01:47:11.291Z,95354.86
2019-03-01T01:49:39.179Z,95361.25
2019-03-01T01:52:07.101Z,95359.09
2019-03-01T01:54:38.050Z,95363.38
2019-03-01T01:57:06.006Z,95352.39
2019-03-01T01:59:33.977Z,95345.32
2019-03-01T02:02:02.773Z,95334.91
2019-03-01T02:04:33.928Z,95334.66
2019-03-01T02:07:02.753Z,95330.02
2019-03-01T02:09:54.237Z,95329.36
2019-03-01T02:12:22.143Z,95310.10
2019-03-01T02:14:50.104Z,95303.28
2019-03-01T02:17:18.031Z,95300.61
2019-03-01T02:19:45.934Z,95299.17
2019-03-01T02:22:13.863Z,95299.77
2019-03-01T02:24:41.789Z,95304.41
2019-03-01T02:27:21.425Z,95306.59
2019-03-01T02:29:50.226Z,95297.19
2019-03-01T02:32:22.491Z,95292.11
2019-03-01T02:34:52.342Z,95288.20
2019-03-01T02:37:20.267Z,95277.75
2019-03-01T02:39:48.168Z,95280.54
2019-03-01T02:42:16.076Z,95269.03
2019-03-01T02:44:43.960Z,95272.73
2019-03-01T02:47:12.802Z,95265.41
2019-03-01T02:49:40.707Z,95263.22
2019-03-01T02:52:08.614Z,95262.58
2019-03-01T02:54:36.506Z,95250.20
2019-03-01T02:57:04.403Z,95251.72
2019-03-01T02:59:32.309Z,95245.30
2019-03-01T03:02:01.160Z,95242.64
2019-03-01T03:04:29.063Z,95239.08
2019-03-01T03:07:00.959Z,95239.21
2019-03-01T03:09:28.855Z,95242.86
2019-03-01T03:11:56.756Z,95251.50
2019-03-01T03:14:41.848Z,95250.00
2019-03-01T03:17:09.749Z,95247.47
2019-03-01T03:19:41.821Z,95243.15
2019-03-01T03:22:09.725Z,95238.23
2019-03-01T03:24:37.635Z,95238.25
2019-03-01T03:27:05.540Z,95234.33
2019-03-01T03:29:33.433Z,95235.34
2019-03-01T03:32:02.232Z,95245.55
2019-03-01T03:34:40.015Z,95245.30
2019-03-01T03:37:07.920Z,95245.02
2019-03-01T03:39:37.822Z,95231.57
2019-03-01T03:42:05.861Z,95236.66
2019-03-01T03:44:34.792Z,95238.97
2019-03-01T03:47:02.677Z,95242.92
2019-03-01T03:49:45.751Z,95221.52
2019-03-01T03:52:14.557Z,95226.79
2019-03-01T03:54:42.451Z,95217.62
2019-03-01T03:57:10.354Z,95217.70
2019-03-01T03:59:38.292Z,95214.98
2019-03-01T04:02:06.197Z,95204.91
2019-03-01T04:04:42.250Z,95218.72
2019-03-01T04:07:10.180Z,95198.98
2019-03-01T04:09:43.400Z,95197.66
2019-03-01T04:12:11.311Z,95198.19
2019-03-01T04:14:39.216Z,95196.28
2019-03-01T04:17:08.038Z,95189.33
2019-03-01T04:19:56.359Z,95184.05
2019-03-01T04:22:24.265Z,95189.08
2019-03-01T04:25:02.526Z,95188.83
2019-03-01T04:27:34.453Z,95195.28
2019-03-01T04:30:02.412Z,95187.20
2019-03-01T04:32:30.336Z,95188.22
2019-03-01T04:34:58.225Z,95185.16
2019-03-01T04:37:44.773Z,95181.04
2019-03-01T04:40:12.679Z,95179.08
2019-03-01T04:42:40.632Z,95179.02
2019-03-01T04:45:09.147Z,95178.17
2019-03-01T04:47:40.388Z,95170.89
2019-03-01T04:50:08.284Z,95168.00
2019-03-01T04:52:36.203Z,95160.87
2019-03-01T04:55:04.112Z,95161.42
2019-03-01T04:57:32.005Z,95164.59
2019-03-01T05:00:14.528Z,95186.08
2019-03-01T05:02:42.473Z,95170.61
2019-03-01T05:05:10.410Z,95168.87
2019-03-01T05:07:44.249Z,95171.64
2019-03-01T05:10:13.089Z,95163.97
2019-03-01T05:12:41.057Z,95169.15
2019-03-01T05:15:09.832Z,95161.18
2019-03-01T05:17:51.876Z,95170.92
2019-03-01T05:20:19.805Z,95167.72
2019-03-01T05:22:57.727Z,95172.13
2019-03-01T05:25:28.565Z,95170.17
2019-03-01T05:27:56.487Z,95165.42
2019-03-01T05:30:29.978Z,95186.79
2019-03-01T05:32:57.872Z,95193.14
2019-03-01T05:35:25.797Z,95178.08
2019-03-01T05:37:55.636Z,95192.36
2019-03-01T05:40:23.823Z,95176.52
2019-03-01T05:43:02.111Z,95174.55
2019-03-01T05:45:31.906Z,95171.95
2019-03-01T05:48:02.799Z,95181.09
2019-03-01T05:50:30.707Z,95171.23
2019-03-01T05:52:59.555Z,95181.09
2019-03-01T05:55:27.496Z,95168.47
2019-03-01T06:01:17.775Z,95163.11
2019-03-01T06:04:01.447Z,95153.52
2019-03-01T06:06:29.352Z,95149.19
2019-03-01T06:12:32.547Z,95147.44
2019-03-01T06:15:07.963Z,95146.85
2019-03-01T06:17:49.099Z,95158.69
2019-03-01T06:20:20.765Z,95159.60
2019-03-01T06:22:52.062Z,95149.27
2019-03-01T06:25:24.589Z,95146.08
2019-03-01T06:31:04.532Z,95145.06
2019-03-01T06:33:48.272Z,95159.84
2019-03-01T06:42:52.549Z,95151.27
2019-03-01T06:45:23.362Z,95153.00
2019-03-01T06:47:52.230Z,95145.86
2019-03-01T06:50:20.133Z,95144.93
2019-03-01T06:52:49.919Z,95135.59
2019-03-01T06:58:10.532Z,95140.61
2019-03-01T07:00:47.295Z,95149.68
2019-03-01T07:03:08.771Z,95151.98
2019-03-01T07:05:36.697Z,95152.59
2019-03-01T07:08:04.600Z,95147.15
2019-03-01T07:10:32.504Z,95150.22
2019-03-01T07:13:01.336Z,95143.08
2019-03-01T07:15:34.350Z,95145.20
2019-03-01T07:18:02.241Z,95143.35
2019-03-01T07:20:30.139Z,95150.92
2019-03-01T07:23:00.018Z,95148.73
2019-03-01T07:25:27.898Z,95163.61
2019-03-01T07:27:55.806Z,95162.80
2019-03-01T07:30:23.712Z,95163.27
2019-03-01T07:32:51.620Z,95159.45
2019-03-01T07:35:19.521Z,95151.09
2019-03-01T07:37:47.430Z,95155.45
2019-03-01T07:40:16.152Z,95156.05
2019-03-01T07:42:44.062Z,95164.13
2019-03-01T07:45:11.976Z,95162.54
2019-03-01T07:47:39.872Z,95161.95
2019-03-01T07:50:08.661Z,95160.49
2019-03-01T07:52:36.583Z,95157.16
2019-03-01T07:55:04.489Z,95167.66
2019-03-01T07:57:32.398Z,95167.63
2019-03-01T08:00:00.356Z,95158.34
2019-03-01T08:02:29.230Z,95153.50
2019-03-01T08:05:00.115Z,95157.73
2019-03-01T08:07:25.027Z,95164.08
2019-03-01T08:09:54.180Z,95153.34
2019-03-01T08:12:20.988Z,95170.08
2019-03-01T08:14:48.884Z,95164.77
2019-03-01T08:17:16.788Z,95164.66
2019-03-01T08:19:45.739Z,95156.62
2019-03-01T08:22:12.592Z,95159.99
2019-03-01T08:24:42.751Z,95162.44
2019-03-01T08:27:10.188Z,95166.03
2019-03-01T08:29:36.296Z,95160.11
2019-03-01T08:32:04.195Z,95164.20
2019-03-01T08:34:35.155Z,95157.06
2019-03-01T08:37:00.989Z,95156.55
2019-03-01T08:39:28.896Z,95161.27
2019-03-01T08:42:00.164Z,95153.59
2019-03-01T08:44:28.525Z,95151.63
2019-03-01T08:46:56.522Z,95148.44
2019-03-01T08:49:24.428Z,95156.16
2019-03-01T08:51:53.300Z,95146.26
2019-03-01T08:54:26.254Z,95139.27
2019-03-01T08:56:51.400Z,95149.31
2019-03-01T08:59:18.923Z,95147.05
2019-03-01T09:01:47.742Z,95135.23
2019-03-01T09:04:21.618Z,95143.52
2019-03-01T09:06:47.813Z,95136.63
2019-03-01T09:09:17.671Z,95126.63
2019-03-01T09:11:48.131Z,95128.48
2019-03-01T09:14:17.978Z,95119.92
2019-03-01T09:16:53.153Z,95122.53
2019-03-01T09:19:22.373Z,95126.86
2019-03-01T09:21:51.016Z,95122.27
2019-03-01T09:24:18.004Z,95117.86
2019-03-01T09:26:46.870Z,95119.47
2019-03-01T09:29:18.538Z,95116.30
2019-03-01T09:31:42.700Z,95115.41
2019-03-01T09:34:10.604Z,95122.74
2019-03-01T09:36:39.498Z,95120.75
2019-03-01T09:39:07.415Z,95123.66
2019-03-01T09:41:36.635Z,95118.76
2019-03-01T09:44:04.156Z,95119.55
2019-03-01T09:46:32.067Z,95113.90
2019-03-01T09:49:00.024Z,95118.27
2019-03-01T09:51:28.849Z,95115.22
2019-03-01T09:53:56.740Z,95112.33
2019-03-01T09:56:24.652Z,95107.52
2019-03-01T09:58:53.526Z,95115.05
2019-03-01T10:01:21.520Z,95111.17
2019-03-01T10:03:50.307Z,95105.42
2019-03-01T10:06:19.109Z,95106.53
2019-03-01T10:08:48.019Z,95107.85
2019-03-01T10:11:15.916Z,95107.23
2019-03-01T10:13:43.897Z,95105.80
2019-03-01T10:16:11.793Z,95103.09
2019-03-01T10:18:39.687Z,95116.78
2019-03-01T10:21:07.588Z,95111.09
2019-03-01T10:23:37.416Z,95115.46
2019-03-01T10:26:05.319Z,95118.41
2019-03-01T10:28:34.249Z,95119.52
2019-03-01T10:31:02.154Z,95113.80
2019-03-01T10:33:31.041Z,95116.77
2019-03-01T10:35:58.971Z,95109.95
2019-03-01T10:38:27.808Z,95121.04
2019-03-01T10:40:56.724Z,95114.08
2019-03-01T10:43:24.664Z,95116.19
2019-03-01T10:45:53.497Z,95109.08
2019-03-01T10:48:21.403Z,95115.39
2019-03-01T10:50:49.285Z,95111.85
2019-03-01T10:53:17.203Z,95103.45
2019-03-01T10:55:48.541Z,95108.53
2019-03-01T10:58:16.448Z,95115.11
2019-03-01T11:00:45.335Z,95107.92
2019-03-01T11:03:13.336Z,95109.52
2019-03-01T11:05:41.454Z,95103.56
2019-03-01T11:08:10.304Z,95105.19
2019-03-01T11:10:38.220Z,95107.80
2019-03-01T11:13:07.955Z,95103.22
2019-03-01T11:15:35.873Z,95107.58
2019-03-01T11:18:03.760Z,95106.55
2019-03-01T11:20:31.680Z,95102.78
2019-03-01T11:22:59.584Z,95102.53
2019-03-01T11:25:27.519Z,95103.48
2019-03-01T11:27:55.423Z,95122.59
2019-03-01T11:30:41.982Z,95121.96
2019-03-01T11:33:09.931Z,95122.65
2019-03-01T11:35:41.647Z,95117.50
2019-03-01T11:38:09.548Z,95104.43
2019-03-01T11:40:38.348Z,95111.12
2019-03-01T11:43:06.271Z,95111.41
2019-03-01T11:45:34.167Z,95118.06
2019-03-01T11:48:02.080Z,95115.89
2019-03-01T11:50:29.983Z,95118.69
2019-03-01T11:52:57.889Z,95117.55
2019-03-01T11:55:25.779Z,95121.01
2019-03-01T11:57:53.683Z,95121.67
2019-03-01T12:00:23.393Z,95121.38
2019-03-01T12:02:52.217Z,95118.09
2019-03-01T12:05:20.111Z,95123.80
2019-03-01T12:07:48.028Z,95113.60
2019-03-01T12:10:20.595Z,95111.24
2019-03-01T12:12:49.426Z,95119.86
2019-03-01T12:15:17.319Z,95112.36
2019-03-01T12:17:47.219Z,95111.94
2019-03-01T12:20:15.159Z,95127.39
2019-03-01T12:22:43.995Z,95123.08
2019-03-01T12:25:11.887Z,95120.63
2019-03-01T12:27:41.779Z,95121.44
2019-03-01T12:30:18.159Z,95121.22
2019-03-01T12:32:46.291Z,95117.75
2019-03-01T12:35:14.281Z,95121.06
2019-03-01T12:37:42.179Z,95120.27
2019-03-01T12:40:14.414Z,95126.09
2019-03-01T12:42:42.328Z,95130.09
2019-03-01T12:45:10.217Z,95128.58
2019-03-01T12:47:38.180Z,95131.30
2019-03-01T12:50:06.893Z,95126.45
2019-03-01T12:52:35.788Z,95128.20
2019-03-01T12:55:03.703Z,95129.80
2019-03-01T12:57:32.635Z,95133.36
2019-03-01T13:00:00.542Z,95127.77
2019-03-01T13:02:28.431Z,95131.83
2019-03-01T13:04:56.353Z,95130.26
2019-03-01T13:07:24.324Z,95139.55
2019-03-01T13:09:52.239Z,95137.16
2019-03-01T13:12:22.441Z,95132.32
2019-03-01T13:14:48.033Z,95133.86
2019-03-01T13:17:15.932Z,95130.00
2019-03-01T13:19:43.861Z,95125.34
2019-03-01T13:22:12.765Z,95124.70
2019-03-01T13:24:40.724Z,95124.52
2019-03-01T13:27:08.601Z,95129.17
2019-03-01T13:29:37.422Z,95127.33
2019-03-01T13:32:11.262Z,95121.41
2019-03-01T13:34:39.259Z,95130.89
2019-03-01T13:37:07.244Z,95131.81
2019-03-01T13:39:35.150Z,95128.42
2019-03-01T13:42:10.339Z,95131.95
2019-03-01T13:44:39.848Z,95131.95
2019-03-01T13:47:05.385Z,95130.77
2019-03-01T13:49:32.233Z,95134.07
2019-03-01T13:52:00.132Z,95139.77
2019-03-01T13:54:29.051Z,95150.88
2019-03-01T13:57:01.904Z,95141.03
2019-03-01T13:59:29.835Z,95134.86
2019-03-01T14:01:57.765Z,95155.02
2019-03-01T14:04:25.657Z,95145.08
2019-03-01T14:06:53.551Z,95144.39
2019-03-01T14:09:23.308Z,95150.91
2019-03-01T14:12:00.769Z,95155.66
2019-03-01T14:14:29.691Z,95153.56
2019-03-01T14:16:57.523Z,95151.50
2019-03-01T14:19:25.413Z,95147.73
2019-03-01T14:21:54.347Z,95139.97
2019-03-01T14:24:25.932Z,95148.53
2019-03-01T14:26:53.874Z,95153.77
2019-03-01T14:29:19.242Z,95150.05
2019-03-01T14:31:47.181Z,95143.92
2019-03-01T14:34:18.162Z,95143.72
2019-03-01T14:36:51.000Z,95142.86
2019-03-01T14:39:22.020Z,95137.23
2019-03-01T14:41:50.915Z,95137.04
2019-03-01T14:44:19.820Z,95144.71
2019-03-01T14:46:56.173Z,95149.00
2019-03-01T14:49:22.825Z,95144.86
2019-03-01T14:51:51.611Z,95153.34
2019-03-01T14:54:21.471Z,95142.14
2019-03-01T14:56:49.363Z,95143.41
2019-03-01T14:59:20.938Z,95135.17
2019-03-01T15:04:54.323Z,95146.95
2019-03-01T15:07:20.585Z,95141.98
2019-03-01T15:09:48.479Z,95142.41
2019-03-01T15:12:21.099Z,95146.19
2019-03-01T15:14:49.553Z,95156.00
2019-03-01T15:17:14.767Z,95151.03
2019-03-01T15:19:41.245Z,95149.03
2019-03-01T15:22:09.710Z,95155.06
2019-03-01T15:24:37.095Z,95153.30
2019-03-01T15:27:06.243Z,95150.09
2019-03-01T15:29:34.127Z,95147.16
2019-03-01T15:32:03.018Z,95147.80
2019-03-01T15:34:30.931Z,95155.89
2019-03-01T15:36:59.942Z,95155.23
2019-03-01T15:39:27.841Z,95155.34
2019-03-01T15:42:01.251Z,95166.11
2019-03-01T15:44:29.193Z,95159.84
2019-03-01T15:46:57.078Z,95161.98
2019-03-01T15:49:24.972Z,95162.61
2019-03-01T15:51:53.773Z,95160.11
2019-03-01T15:54:21.689Z,95159.22
2019-03-01T15:56:49.631Z,95166.22
2019-03-01T15:59:17.529Z,95172.57
2019-03-01T16:01:49.536Z,95174.95
2019-03-01T16:04:17.423Z,95177.55
2019-03-01T16:06:45.334Z,95181.30
2019-03-01T16:09:13.254Z,95175.49
2019-03-01T16:11:41.164Z,95185.23
2019-03-01T16:14:10.053Z,95183.66
2019-03-01T16:16:37.938Z,95199.11
2019-03-01T16:19:06.792Z,95198.78
2019-03-01T16:21:36.566Z,95202.33
2019-03-01T16:24:05.008Z,95202.48
2019-03-01T16:26:33.537Z,95199.95
2019-03-01T16:29:00.323Z,95206.02
2019-03-01T16:31:28.988Z,95206.25
2019-03-01T16:33:56.131Z,95210.31
2019-03-01T16:36:26.516Z,95209.84
2019-03-01T16:38:52.003Z,95214.36
2019-03-01T16:41:22.038Z,95215.14
2019-03-01T16:43:49.931Z,95218.22
2019-03-01T16:46:17.896Z,95226.25
2019-03-01T16:48:48.688Z,95229.48
2019-03-01T16:51:18.613Z,95233.67
2019-03-01T16:53:43.519Z,95243.20
2019-03-01T16:56:12.335Z,95243.47
2019-03-01T16:58:40.385Z,95247.63
2019-03-01T17:01:08.282Z,95258.27
2019-03-01T17:03:36.216Z,95252.55
2019-03-01T17:06:04.163Z,95255.92
2019-03-01T17:08:32.063Z,95267.59
2019-03-01T17:11:02.588Z,95269.91
2019-03-01T17:13:29.884Z,95271.21
2019-03-01T17:16:02.709Z,95268.31
2019-03-01T17:18:30.637Z,95268.92
2019-03-01T17:20:59.454Z,95272.12
2019-03-01T17:23:27.362Z,95272.42
2019-03-01T17:25:56.208Z,95282.36
2019-03-01T17:28:26.576Z,95283.14
2019-03-01T17:30:52.915Z,95283.57
2019-03-01T17:33:20.865Z,95289.45
2019-03-01T17:35:48.794Z,95288.24
2019-03-01T17:38:16.719Z,95288.82
2019-03-01T17:40:46.551Z,95301.23
2019-03-01T17:43:18.389Z,95305.21
2019-03-01T17:45:46.305Z,95306.36
2019-03-01T17:48:14.232Z,95302.52
2019-03-01T17:50:46.744Z,95303.25
2019-03-01T17:53:15.629Z,95305.03
2019-03-01T17:55:43.596Z,95311.17
2019-03-01T17:58:11.496Z,95312.98
2019-03-01T18:00:40.290Z,95310.48
2019-03-01T18:03:08.216Z,95312.48
2019-03-01T18:05:40.391Z,95312.24
2019-03-01T18:08:10.502Z,95309.80
2019-03-01T18:10:42.373Z,95314.35
2019-03-01T18:13:12.180Z,95313.73
2019-03-01T18:15:41.140Z,95317.77
2019-03-01T18:18:12.275Z,95322.30
2019-03-01T18:20:38.735Z,95317.14
2019-03-01T18:23:10.422Z,95310.70
2019-03-01T18:25:43.112Z,95315.70
2019-03-01T18:28:14.969Z,95324.13
2019-03-01T18:30:47.863Z,95334.03
2019-03-01T18:33:20.854Z,95336.65
2019-03-01T18:35:45.549Z,95342.85
2019-03-01T18:38:13.452Z,95352.83
2019-03-01T18:40:41.361Z,95349.27
2019-03-01T18:43:09.720Z,95348.00
2019-03-01T18:45:45.748Z,95348.23
2019-03-01T18:48:14.639Z,95348.05
2019-03-01T18:50:42.582Z,95349.48
2019-03-01T18:53:14.399Z,95347.83
2019-03-01T18:55:42.300Z,95352.46
2019-03-01T18:58:20.645Z,95351.48
2019-03-01T19:00:49.544Z,95349.36
2019-03-01T19:03:20.403Z,95356.16
2019-03-01T19:05:49.400Z,95354.91
2019-03-01T19:08:18.282Z,95357.08
2019-03-01T19:10:54.303Z,95362.56
2019-03-01T19:13:20.890Z,95368.38
2019-03-01T19:15:53.659Z,95365.66
2019-03-01T19:18:21.229Z,95372.67
2019-03-01T19:20:50.095Z,95373.27
2019-03-01T19:23:18.056Z,95374.84
2019-03-01T19:25:46.046Z,95380.88
2019-03-01T19:28:13.989Z,95386.38
2019-03-01T19:30:41.940Z,95395.08
2019-03-01T19:33:10.769Z,95402.43
2019-03-01T19:35:38.779Z,95404.69
2019-03-01T19:38:06.732Z,95409.34
2019-03-01T19:40:34.603Z,95406.56
2019-03-01T19:43:02.558Z,95413.37
2019-03-01T19:45:30.519Z,95411.75
2019-03-01T19:48:03.273Z,95409.62
2019-03-01T19:50:27.243Z,95416.06
2019-03-01T19:52:55.164Z,95415.31
2019-03-01T19:55:24.003Z,95418.42
2019-03-01T19:57:51.911Z,95422.80
2019-03-01T20:00:30.583Z,95428.41
2019-03-01T20:02:58.502Z,95426.39
2019-03-01T20:05:32.015Z,95427.86
2019-03-01T20:07:59.739Z,95421.02
2019-03-01T20:10:28.711Z,95424.61
2019-03-01T20:12:56.677Z,95430.28
2019-03-01T20:15:24.584Z,95439.00
2019-03-01T20:17:52.488Z,95436.61
2019-03-01T20:20:21.236Z,95434.87
2019-03-01T20:22:50.522Z,95438.66
2019-03-01T20:25:20.779Z,95443.56
2019-03-01T20:27:49.572Z,95436.19
2019-03-01T20:30:20.055Z,95444.64
2019-03-01T20:32:52.696Z,95442.84
2019-03-01T20:35:20.659Z,95445.86
2019-03-01T20:37:52.213Z,95443.43
2019-03-01T20:40:22.727Z,95452.52
2019-03-01T20:42:49.900Z,95447.25
2019-03-01T20:45:36.402Z,95450.11
2019-03-01T20:48:07.573Z,95450.89
2019-03-01T20:50:36.569Z,95452.28
2019-03-01T20:53:03.402Z,95452.71
2019-03-01T20:55:33.284Z,95461.45
2019-03-01T20:58:03.220Z,95462.11
2019-03-01T21:00:29.848Z,95456.70
2019-03-01T21:02:57.898Z,95463.38
2019-03-01T21:05:30.410Z,95466.94
2019-03-01T21:07:56.718Z,95470.93
2019-03-01T21:10:28.447Z,95476.75
2019-03-01T21:13:02.827Z,95478.16
2019-03-01T21:15:34.611Z,95478.70
2019-03-01T21:18:03.607Z,95471.33
2019-03-01T21:20:31.500Z,95467.34
2019-03-01T21:22:59.411Z,95465.09
2019-03-01T21:25:29.289Z,95470.26
2019-03-01T21:28:00.834Z,95473.22
2019-03-01T21:30:30.927Z,95474.77
2019-03-01T21:32:58.969Z,95474.18
2019-03-01T21:35:27.818Z,95478.49
2019-03-01T21:37:55.700Z,95475.30
2019-03-01T21:40:35.668Z,95463.67
2019-03-01T21:43:03.095Z,95481.13
2019-03-01T21:45:31.007Z,95481.91
2019-03-01T21:48:03.798Z,95477.75
2019-03-01T21:50:31.675Z,95481.86
2019-03-01T21:53:01.710Z,95486.06
2019-03-01T21:55:31.037Z,95470.56
2019-03-01T21:58:03.360Z,95479.45
2019-03-01T22:00:31.324Z,95478.08
2019-03-01T22:02:56.682Z,95480.55
2019-03-01T22:05:30.128Z,95484.19
2019-03-01T22:07:58.022Z,95475.81
2019-03-01T22:10:25.942Z,95479.69
2019-03-01T22:12:56.886Z,95485.11
2019-03-01T22:15:25.519Z,95479.31
2019-03-01T22:18:03.744Z,95476.63
2019-03-01T22:20:31.645Z,95478.17
2019-03-01T22:23:00.469Z,95479.09
2019-03-01T22:25:29.332Z,95490.09
2019-03-01T22:27:57.652Z,95482.19
2019-03-01T22:30:29.967Z,95481.45
2019-03-01T22:32:58.761Z,95487.35
2019-03-01T22:35:26.716Z,95492.81
2019-03-01T22:37:55.595Z,95484.94
2019-03-01T22:40:28.120Z,95483.46
2019-03-01T22:42:54.552Z,95495.45
2019-03-01T22:45:27.409Z,95493.30
2019-03-01T22:47:56.280Z,95493.20
2019-03-01T22:50:25.115Z,95491.00
2019-03-01T22:52:53.968Z,95493.25
2019-03-01T22:55:21.907Z,95497.27
2019-03-01T22:57:52.981Z,95500.11
2019-03-01T23:03:43.187Z,95506.77
2019-03-01T23:06:11.755Z,95503.97
2019-03-01T23:08:39.012Z,95504.19
2019-03-01T23:11:07.900Z,95503.70
2019-03-01T23:13:35.788Z,95507.41
2019-03-01T23:16:03.715Z,95511.33
2019-03-01T23:18:37.629Z,95514.13
2019-03-01T23:21:06.962Z,95518.13
2019-03-01T23:23:34.845Z,95515.88
2019-03-01T23:26:02.754Z,95519.11
2019-03-01T23:28:30.675Z,95522.97
2019-03-01T23:31:00.498Z,95513.61
2019-03-01T23:33:27.683Z,95526.53
2019-03-01T23:35:55.359Z,95517.88
2019-03-01T23:38:23.397Z,95512.67
2019-03-01T23:40:53.234Z,95519.56
2019-03-01T23:43:21.136Z,95518.03
2019-03-01T23:45:50.073Z,95516.44
2019-03-01T23:48:16.949Z,95516.07
2019-03-01T23:50:45.796Z,95516.61
2019-03-01T23:53:13.693Z,95514.88
2019-03-01T23:55:45.208Z,95511.76
2019-03-01T23:58:15.787Z,95515.03
